Terminal Aerodrome Forecast
Issued by NWS

Home | Current Version | Previous Version | Graphics & Text | Print | Product List | Glossary On
Versions: 1 2 3 4 5 6 7 8 9 10 11 12 13 14 15 16 17 18 19 20 21 22 23 24 25 26 27 28 29 30 31 32 33
000
FTUS43 KLOT 231142
TAFORD
TAF
KORD 231142Z 2312/2418 30007KT P6SM SCT250
     FM231330 33007KT P6SM OVC014
     FM231500 03012KT 6SM BR SCT008 OVC010
     FM231800 04013G19KT P6SM BKN015
     FM232100 04013G20KT P6SM VCSH BKN025 OVC080
      TEMPO 2322/2401 -SHRA
     FM240100 05014G21KT 5SM -SHRA BR OVC008
     FM240500 06015G22KT 3SM SHRA BR OVC005 PROB30 2406/2411 2SM
      TSRA OVC008CB
     FM241400 07011KT 2SM BR VCSH OVC004=

USA.gov is the U.S. government's official web portal to all federal, state and local government web resources and services.